sensor_id;sensor_type;location;lat;lon;timestamp;pressure;altitude;pressure_sealevel;temperature;humidity
49585;BME280;35491;49.142;9.210;2023-04-23T00:00:03;99199.00;;;15.04;70.53
49585;BME280;35491;49.142;9.210;2023-04-23T00:01:05;99210.19;;;15.01;70.53
49585;BME280;35491;49.142;9.210;2023-04-23T00:02:09;99206.00;;;14.98;71.10
49585;BME280;35491;49.142;9.210;2023-04-23T00:03:11;99203.72;;;14.95;71.25
49585;BME280;35491;49.142;9.210;2023-04-23T00:04:16;99204.28;;;14.91;71.16
49585;BME280;35491;49.142;9.210;2023-04-23T00:05:20;99202.41;;;14.91;71.36
49585;BME280;35491;49.142;9.210;2023-04-23T00:06:25;99210.06;;;14.88;71.44
49585;BME280;35491;49.142;9.210;2023-04-23T00:07:26;99210.88;;;14.88;71.15
49585;BME280;35491;49.142;9.210;2023-04-23T00:08:33;99211.91;;;14.87;71.67
49585;BME280;35491;49.142;9.210;2023-04-23T00:09:34;99203.84;;;14.87;72.04
49585;BME280;35491;49.142;9.210;2023-04-23T00:10:38;99205.03;;;14.85;71.88
49585;BME280;35491;49.142;9.210;2023-04-23T00:11:40;99206.06;;;14.84;71.85
49585;BME280;35491;49.142;9.210;2023-04-23T00:12:44;99194.69;;;14.81;71.75
49585;BME280;35491;49.142;9.210;2023-04-23T00:13:45;99204.59;;;14.81;71.57
49585;BME280;35491;49.142;9.210;2023-04-23T00:14:49;99200.88;;;14.82;72.33
49585;BME280;35491;49.142;9.210;2023-04-23T00:15:51;99203.78;;;14.80;72.46
49585;BME280;35491;49.142;9.210;2023-04-23T00:16:55;99208.97;;;14.82;71.85
49585;BME280;35491;49.142;9.210;2023-04-23T00:17:56;99211.06;;;14.87;71.66
49585;BME280;35491;49.142;9.210;2023-04-23T00:19:00;99206.53;;;14.87;71.28
49585;BME280;35491;49.142;9.210;2023-04-23T00:20:01;99204.22;;;14.84;71.54
49585;BME280;35491;49.142;9.210;2023-04-23T00:21:06;99206.28;;;14.82;71.90
49585;BME280;35491;49.142;9.210;2023-04-23T00:22:08;99217.88;;;14.82;71.98
49585;BME280;35491;49.142;9.210;2023-04-23T00:23:13;99208.75;;;14.84;71.76
49585;BME280;35491;49.142;9.210;2023-04-23T00:24:17;99216.44;;;14.87;71.37
49585;BME280;35491;49.142;9.210;2023-04-23T00:25:21;99213.38;;;14.90;71.39
49585;BME280;35491;49.142;9.210;2023-04-23T00:26:23;99211.06;;;14.87;71.28
49585;BME280;35491;49.142;9.210;2023-04-23T00:27:26;99212.88;;;14.79;72.02
49585;BME280;35491;49.142;9.210;2023-04-23T00:28:28;99222.84;;;14.86;71.42
49585;BME280;35491;49.142;9.210;2023-04-23T00:29:31;99212.22;;;14.77;71.21
49585;BME280;35491;49.142;9.210;2023-04-23T00:30:33;99217.38;;;14.72;71.42
49585;BME280;35491;49.142;9.210;2023-04-23T00:31:36;99216.34;;;14.73;71.68
49585;BME280;35491;49.142;9.210;2023-04-23T00:32:38;99214.03;;;14.70;72.03
49585;BME280;35491;49.142;9.210;2023-04-23T00:33:42;99219.41;;;14.70;71.72
49585;BME280;35491;49.142;9.210;2023-04-23T00:34:43;99213.81;;;14.72;71.69
49585;BME280;35491;49.142;9.210;2023-04-23T00:35:48;99223.78;;;14.71;71.73
49585;BME280;35491;49.142;9.210;2023-04-23T00:36:49;99221.53;;;14.75;71.79
49585;BME280;35491;49.142;9.210;2023-04-23T00:37:53;99228.38;;;14.77;71.26
49585;BME280;35491;49.142;9.210;2023-04-23T00:38:54;99225.16;;;14.67;71.32
49585;BME280;35491;49.142;9.210;2023-04-23T00:40:00;99230.25;;;14.62;70.71
49585;BME280;35491;49.142;9.210;2023-04-23T00:41:03;99227.16;;;14.65;71.36
49585;BME280;35491;49.142;9.210;2023-04-23T00:42:07;99231.66;;;14.58;71.00
49585;BME280;35491;49.142;9.210;2023-04-23T00:43:12;99231.66;;;14.58;70.71
49585;BME280;35491;49.142;9.210;2023-04-23T00:44:15;99225.91;;;14.61;70.67
49585;BME280;35491;49.142;9.210;2023-04-23T00:45:17;99233.31;;;14.59;70.59
49585;BME280;35491;49.142;9.210;2023-04-23T00:46:20;99226.34;;;14.64;70.41
49585;BME280;35491;49.142;9.210;2023-04-23T00:47:22;99230.00;;;14.57;70.74
49585;BME280;35491;49.142;9.210;2023-04-23T00:48:26;99231.50;;;14.59;70.59
49585;BME280;35491;49.142;9.210;2023-04-23T00:49:27;99232.69;;;14.57;70.99
49585;BME280;35491;49.142;9.210;2023-04-23T00:50:31;99231.44;;;14.38;71.61
49585;BME280;35491;49.142;9.210;2023-04-23T00:51:32;99233.44;;;14.50;70.88
49585;BME280;35491;49.142;9.210;2023-04-23T00:52:36;99236.97;;;14.51;71.00
49585;BME280;35491;49.142;9.210;2023-04-23T00:53:38;99232.81;;;14.48;71.09
49585;BME280;35491;49.142;9.210;2023-04-23T00:54:43;99240.09;;;14.33;72.23
49585;BME280;35491;49.142;9.210;2023-04-23T00:55:47;99238.88;;;14.35;71.66
49585;BME280;35491;49.142;9.210;2023-04-23T00:56:51;99245.38;;;14.26;72.68
49585;BME280;35491;49.142;9.210;2023-04-23T00:57:59;99235.56;;;14.18;73.00
49585;BME280;35491;49.142;9.210;2023-04-23T00:59:03;99239.56;;;14.08;73.90
49585;BME280;35491;49.142;9.210;2023-04-23T01:00:05;99242.72;;;14.11;73.75
49585;BME280;35491;49.142;9.210;2023-04-23T01:01:10;99236.56;;;14.17;73.44
49585;BME280;35491;49.142;9.210;2023-04-23T01:02:12;99245.88;;;14.00;74.90
49585;BME280;35491;49.142;9.210;2023-04-23T01:03:16;99239.47;;;14.01;75.06
49585;BME280;35491;49.142;9.210;2023-04-23T01:04:18;99246.31;;;14.03;74.63
49585;BME280;35491;49.142;9.210;2023-04-23T01:05:22;99248.56;;;14.00;74.72
49585;BME280;35491;49.142;9.210;2023-04-23T01:06:23;99247.09;;;13.97;75.41
49585;BME280;35491;49.142;9.210;2023-04-23T01:07:28;99246.25;;;13.97;75.32
49585;BME280;35491;49.142;9.210;2023-04-23T01:08:29;99246.06;;;13.83;76.46
49585;BME280;35491;49.142;9.210;2023-04-23T01:09:33;99248.19;;;13.88;76.13
49585;BME280;35491;49.142;9.210;2023-04-23T01:10:35;99247.94;;;13.83;76.63
49585;BME280;35491;49.142;9.210;2023-04-23T01:11:41;99253.88;;;13.78;76.81
49585;BME280;35491;49.142;9.210;2023-04-23T01:12:43;99256.53;;;13.63;77.90
49585;BME280;35491;49.142;9.210;2023-04-23T01:13:46;99256.16;;;13.66;78.01
49585;BME280;35491;49.142;9.210;2023-04-23T01:14:48;99260.91;;;13.64;78.48
49585;BME280;35491;49.142;9.210;2023-04-23T01:15:52;99257.81;;;13.67;78.40
49585;BME280;35491;49.142;9.210;2023-04-23T01:16:53;99261.06;;;13.63;78.50
49585;BME280;35491;49.142;9.210;2023-04-23T01:17:57;99263.59;;;13.64;78.36
49585;BME280;35491;49.142;9.210;2023-04-23T01:18:59;99262.25;;;13.60;78.88
49585;BME280;35491;49.142;9.210;2023-04-23T01:20:03;99265.72;;;13.69;78.04
49585;BME280;35491;49.142;9.210;2023-04-23T01:21:06;99273.47;;;13.64;79.28
49585;BME280;35491;49.142;9.210;2023-04-23T01:22:14;99268.88;;;13.72;78.33
49585;BME280;35491;49.142;9.210;2023-04-23T01:23:15;99269.69;;;13.73;78.10
49585;BME280;35491;49.142;9.210;2023-04-23T01:24:19;99264.50;;;13.56;79.65
49585;BME280;35491;49.142;9.210;2023-04-23T01:25:20;99269.47;;;13.45;80.50
49585;BME280;35491;49.142;9.210;2023-04-23T01:26:24;99268.00;;;13.57;80.18
49585;BME280;35491;49.142;9.210;2023-04-23T01:27:25;99270.78;;;13.64;80.46
49585;BME280;35491;49.142;9.210;2023-04-23T01:28:29;99266.59;;;13.46;81.18
49585;BME280;35491;49.142;9.210;2023-04-23T01:29:30;99271.03;;;13.39;81.73
49585;BME280;35491;49.142;9.210;2023-04-23T01:30:35;99275.13;;;13.26;82.88
49585;BME280;35491;49.142;9.210;2023-04-23T01:31:36;99275.94;;;13.12;84.38
49585;BME280;35491;49.142;9.210;2023-04-23T01:32:40;99271.19;;;13.14;84.66
49585;BME280;35491;49.142;9.210;2023-04-23T01:33:41;99271.19;;;13.14;84.73
49585;BME280;35491;49.142;9.210;2023-04-23T01:34:46;99270.66;;;13.19;84.70
49585;BME280;35491;49.142;9.210;2023-04-23T01:35:47;99270.25;;;13.07;85.51
49585;BME280;35491;49.142;9.210;2023-04-23T01:36:51;99268.31;;;13.01;86.57
49585;BME280;35491;49.142;9.210;2023-04-23T01:37:56;99272.00;;;13.00;86.53
49585;BME280;35491;49.142;9.210;2023-04-23T01:39:01;99266.16;;;12.96;87.00
49585;BME280;35491;49.142;9.210;2023-04-23T01:40:03;99271.41;;;12.89;86.87
49585;BME280;35491;49.142;9.210;2023-04-23T01:41:07;99274.81;;;12.83;87.51
49585;BME280;35491;49.142;9.210;2023-04-23T01:42:08;99268.00;;;12.95;86.78
49585;BME280;35491;49.142;9.210;2023-04-23T01:43:12;99267.38;;;12.93;86.55
49585;BME280;35491;49.142;9.210;2023-04-23T01:44:13;99270.31;;;12.99;86.77
49585;BME280;35491;49.142;9.210;2023-04-23T01:45:17;99265.69;;;12.92;86.62
49585;BME280;35491;49.142;9.210;2023-04-23T01:46:19;99266.03;;;12.89;86.78
49585;BME280;35491;49.142;9.210;2023-04-23T01:47:23;99265.56;;;12.86;87.36
49585;BME280;35491;49.142;9.210;2023-04-23T01:48:24;99268.72;;;12.89;87.20
49585;BME280;35491;49.142;9.210;2023-04-23T01:49:28;99270.31;;;12.99;86.71
49585;BME280;35491;49.142;9.210;2023-04-23T01:50:29;99271.41;;;12.89;87.49
49585;BME280;35491;49.142;9.210;2023-04-23T01:51:33;99268.84;;;12.96;87.14
49585;BME280;35491;49.142;9.210;2023-04-23T01:52:46;99265.78;;;12.99;86.81
49585;BME280;35491;49.142;9.210;2023-04-23T01:53:52;99275.69;;;12.99;86.35
49585;BME280;35491;49.142;9.210;2023-04-23T01:54:53;99275.88;;;12.97;86.38
49585;BME280;35491;49.142;9.210;2023-04-23T01:55:58;99280.72;;;13.02;86.00
49585;BME280;35491;49.142;9.210;2023-04-23T01:57:00;99270.13;;;13.00;86.38
49585;BME280;35491;49.142;9.210;2023-04-23T01:58:04;99285.69;;;13.05;86.22
49585;BME280;35491;49.142;9.210;2023-04-23T01:59:06;99279.78;;;13.09;85.80
49585;BME280;35491;49.142;9.210;2023-04-23T02:00:10;99279.25;;;13.14;85.32
49585;BME280;35491;49.142;9.210;2023-04-23T02:01:12;99276.28;;;13.09;85.99
49585;BME280;35491;49.142;9.210;2023-04-23T02:02:16;99280.88;;;13.00;86.52
49585;BME280;35491;49.142;9.210;2023-04-23T02:03:17;99283.75;;;12.99;86.18
49585;BME280;35491;49.142;9.210;2023-04-23T02:04:21;99275.50;;;13.00;86.31
49585;BME280;35491;49.142;9.210;2023-04-23T02:05:22;99282.38;;;13.03;86.20
49585;BME280;35491;49.142;9.210;2023-04-23T02:06:26;99281.72;;;13.01;86.12
49585;BME280;35491;49.142;9.210;2023-04-23T02:07:27;99278.19;;;13.00;85.95
49585;BME280;35491;49.142;9.210;2023-04-23T02:08:31;99287.84;;;13.09;85.89
49585;BME280;35491;49.142;9.210;2023-04-23T02:09:35;99288.09;;;13.00;86.10
49585;BME280;35491;49.142;9.210;2023-04-23T02:10:39;99287.63;;;12.96;86.85
49585;BME280;35491;49.142;9.210;2023-04-23T02:11:40;99288.91;;;13.00;86.21
49585;BME280;35491;49.142;9.210;2023-04-23T02:12:44;99294.28;;;13.00;86.24
49585;BME280;35491;49.142;9.210;2023-04-23T02:13:45;99289.78;;;13.01;86.30
49585;BME280;35491;49.142;9.210;2023-04-23T02:14:49;99286.44;;;12.99;86.50
49585;BME280;35491;49.142;9.210;2023-04-23T02:15:50;99296.50;;;12.97;86.57
49585;BME280;35491;49.142;9.210;2023-04-23T02:16:54;99295.47;;;12.98;86.39
49585;BME280;35491;49.142;9.210;2023-04-23T02:17:57;99293.81;;;12.97;86.53
49585;BME280;35491;49.142;9.210;2023-04-23T02:19:01;99291.50;;;12.93;87.14
49585;BME280;35491;49.142;9.210;2023-04-23T02:20:02;99295.47;;;12.98;86.68
49585;BME280;35491;49.142;9.210;2023-04-23T02:21:06;99295.84;;;12.94;86.84
49585;BME280;35491;49.142;9.210;2023-04-23T02:22:07;99296.88;;;12.93;87.20
49585;BME280;35491;49.142;9.210;2023-04-23T02:23:12;99293.81;;;12.97;87.01
49585;BME280;35491;49.142;9.210;2023-04-23T02:24:13;99297.03;;;12.92;86.98
49585;BME280;35491;49.142;9.210;2023-04-23T02:25:23;99298.34;;;12.96;86.93
49585;BME280;35491;49.142;9.210;2023-04-23T02:26:24;99298.34;;;12.96;87.20
49585;BME280;35491;49.142;9.210;2023-04-23T02:27:28;99294.13;;;13.02;86.59
49585;BME280;35491;49.142;9.210;2023-04-23T02:28:29;99292.75;;;13.06;86.42
49585;BME280;35491;49.142;9.210;2023-04-23T02:29:33;99298.75;;;13.08;86.26
49585;BME280;35491;49.142;9.210;2023-04-23T02:30:36;99294.41;;;13.07;86.25
49585;BME280;35491;49.142;9.210;2023-04-23T02:31:44;99297.63;;;13.02;86.45
49585;BME280;35491;49.142;9.210;2023-04-23T02:32:46;99297.63;;;13.02;86.58
49585;BME280;35491;49.142;9.210;2023-04-23T02:33:50;99289.72;;;13.09;86.07
49585;BME280;35491;49.142;9.210;2023-04-23T02:34:51;99299.78;;;13.07;86.18
49585;BME280;35491;49.142;9.210;2023-04-23T02:35:55;99292.25;;;13.02;86.37
49585;BME280;35491;49.142;9.210;2023-04-23T02:36:56;99296.28;;;13.06;86.43
49585;BME280;35491;49.142;9.210;2023-04-23T02:37:59;99290.25;;;13.04;86.53
49585;BME280;35491;49.142;9.210;2023-04-23T02:39:00;99296.09;;;13.08;85.63
49585;BME280;35491;49.142;9.210;2023-04-23T02:40:05;99288.91;;;13.00;86.52
49585;BME280;35491;49.142;9.210;2023-04-23T02:41:09;99288.84;;;13.08;85.82
49585;BME280;35491;49.142;9.210;2023-04-23T02:42:13;99292.19;;;13.10;85.53
49585;BME280;35491;49.142;9.210;2023-04-23T02:43:14;99292.19;;;13.10;85.57
49585;BME280;35491;49.142;9.210;2023-04-23T02:44:17;99293.69;;;13.13;85.15
49585;BME280;35491;49.142;9.210;2023-04-23T02:45:19;99294.06;;;13.10;85.55
49585;BME280;35491;49.142;9.210;2023-04-23T02:46:22;99284.00;;;13.12;85.24
49585;BME280;35491;49.142;9.210;2023-04-23T02:47:23;99293.03;;;13.11;84.82
49585;BME280;35491;49.142;9.210;2023-04-23T02:48:27;99288.84;;;13.08;85.59
49585;BME280;35491;49.142;9.210;2023-04-23T02:49:29;99292.75;;;13.06;85.52
49585;BME280;35491;49.142;9.210;2023-04-23T02:50:33;99300.84;;;12.98;85.62
49585;BME280;35491;49.142;9.210;2023-04-23T02:51:34;99300.19;;;12.95;85.79
49585;BME280;35491;49.142;9.210;2023-04-23T02:52:38;99293.81;;;12.97;85.59
49585;BME280;35491;49.142;9.210;2023-04-23T02:53:40;99297.16;;;12.99;85.41
49585;BME280;35491;49.142;9.210;2023-04-23T02:54:43;99305.75;;;12.94;85.47
49585;BME280;35491;49.142;9.210;2023-04-23T02:55:44;99299.50;;;13.02;85.41
49585;BME280;35491;49.142;9.210;2023-04-23T02:56:51;99296.63;;;13.03;85.03
49585;BME280;35491;49.142;9.210;2023-04-23T02:57:52;99300.50;;;13.01;85.37
49585;BME280;35491;49.142;9.210;2023-04-23T02:58:55;99295.13;;;13.01;84.86
49585;BME280;35491;49.142;9.210;2023-04-23T02:59:56;99303.00;;;13.02;85.18
49585;BME280;35491;49.142;9.210;2023-04-23T03:01:00;99299.13;;;13.05;84.83
49585;BME280;35491;49.142;9.210;2023-04-23T03:02:02;99296.44;;;13.05;85.01
49585;BME280;35491;49.142;9.210;2023-04-23T03:03:05;99288.03;;;13.08;84.75
49585;BME280;35491;49.142;9.210;2023-04-23T03:04:06;99293.59;;;13.06;84.73
49585;BME280;35491;49.142;9.210;2023-04-23T03:05:11;99291.91;;;13.05;84.63
49585;BME280;35491;49.142;9.210;2023-04-23T03:06:13;99296.44;;;13.05;84.41
49585;BME280;35491;49.142;9.210;2023-04-23T03:07:17;99295.25;;;13.07;84.44
49585;BME280;35491;49.142;9.210;2023-04-23T03:08:18;99298.75;;;13.08;84.50
49585;BME280;35491;49.142;9.210;2023-04-23T03:09:22;99289.03;;;13.07;84.42
49585;BME280;35491;49.142;9.210;2023-04-23T03:10:23;99299.78;;;13.07;84.72
49585;BME280;35491;49.142;9.210;2023-04-23T03:11:27;99298.09;;;13.06;84.56
49585;BME280;35491;49.142;9.210;2023-04-23T03:12:30;99297.44;;;13.04;84.55
49585;BME280;35491;49.142;9.210;2023-04-23T03:13:34;99292.63;;;12.99;84.94
49585;BME280;35491;49.142;9.210;2023-04-23T03:14:35;99295.78;;;13.03;84.72
49585;BME280;35491;49.142;9.210;2023-04-23T03:15:39;99291.72;;;13.07;84.29
49585;BME280;35491;49.142;9.210;2023-04-23T03:16:40;99294.22;;;13.08;84.33
49585;BME280;35491;49.142;9.210;2023-04-23T03:17:44;99292.38;;;13.09;84.40
49585;BME280;35491;49.142;9.210;2023-04-23T03:18:45;99289.50;;;13.10;83.91
49585;BME280;35491;49.142;9.210;2023-04-23T03:19:49;99289.91;;;13.07;84.31
49585;BME280;35491;49.142;9.210;2023-04-23T03:20:50;99285.81;;;13.11;84.07
49585;BME280;35491;49.142;9.210;2023-04-23T03:21:54;99284.06;;;13.19;83.64
49585;BME280;35491;49.142;9.210;2023-04-23T03:22:55;99277.97;;;13.10;83.93
49585;BME280;35491;49.142;9.210;2023-04-23T03:23:59;99284.69;;;13.06;84.09
49585;BME280;35491;49.142;9.210;2023-04-23T03:25:00;99282.19;;;13.04;83.73
49585;BME280;35491;49.142;9.210;2023-04-23T03:26:04;99282.00;;;13.06;83.71
49585;BME280;35491;49.142;9.210;2023-04-23T03:27:05;99279.31;;;13.06;83.81
49585;BME280;35491;49.142;9.210;2023-04-23T03:28:11;99272.88;;;13.15;83.42
49585;BME280;35491;49.142;9.210;2023-04-23T03:29:13;99276.88;;;13.19;83.06
49585;BME280;35491;49.142;9.210;2023-04-23T03:30:16;99272.72;;;13.17;82.82
49585;BME280;35491;49.142;9.210;2023-04-23T03:31:18;99274.63;;;13.08;83.24
49585;BME280;35491;49.142;9.210;2023-04-23T03:32:23;99272.59;;;13.10;83.72
49585;BME280;35491;49.142;9.210;2023-04-23T03:33:24;99273.59;;;13.09;83.41
49585;BME280;35491;49.142;9.210;2023-04-23T03:34:28;99269.50;;;13.21;82.87
49585;BME280;35491;49.142;9.210;2023-04-23T03:35:29;99275.22;;;13.18;82.14
49585;BME280;35491;49.142;9.210;2023-04-23T03:36:33;99281.00;;;13.07;82.55
49585;BME280;35491;49.142;9.210;2023-04-23T03:37:36;99276.03;;;13.19;82.77
49585;BME280;35491;49.142;9.210;2023-04-23T03:38:37;99283.91;;;13.20;82.97
49585;BME280;35491;49.142;9.210;2023-04-23T03:39:41;99274.75;;;13.15;82.54
49585;BME280;35491;49.142;9.210;2023-04-23T03:40:42;99279.16;;;13.07;82.87
49585;BME280;35491;49.142;9.210;2023-04-23T03:41:46;99278.31;;;13.07;82.95
49585;BME280;35491;49.142;9.210;2023-04-23T03:42:47;99274.16;;;13.04;82.98
49585;BME280;35491;49.142;9.210;2023-04-23T03:43:53;99275.44;;;13.08;83.27
49585;BME280;35491;49.142;9.210;2023-04-23T03:44:55;99276.16;;;13.02;83.33
49585;BME280;35491;49.142;9.210;2023-04-23T03:45:59;99282.72;;;13.00;83.44
49585;BME280;35491;49.142;9.210;2023-04-23T03:47:00;99284.03;;;13.04;83.18
49585;BME280;35491;49.142;9.210;2023-04-23T03:48:04;99286.16;;;13.08;83.34
49585;BME280;35491;49.142;9.210;2023-04-23T03:49:06;99283.31;;;13.10;83.08
49585;BME280;35491;49.142;9.210;2023-04-23T03:50:10;99280.25;;;13.13;82.48
49585;BME280;35491;49.142;9.210;2023-04-23T03:51:12;99281.13;;;13.14;82.91
49585;BME280;35491;49.142;9.210;2023-04-23T03:52:16;99280.09;;;13.15;82.37
49585;BME280;35491;49.142;9.210;2023-04-23T03:53:17;99289.63;;;13.17;82.72
49585;BME280;35491;49.142;9.210;2023-04-23T03:54:21;99280.94;;;13.15;82.15
49585;BME280;35491;49.142;9.210;2023-04-23T03:55:24;99285.47;;;13.15;81.92
49585;BME280;35491;49.142;9.210;2023-04-23T03:56:28;99280.94;;;13.15;82.45
49585;BME280;35491;49.142;9.210;2023-04-23T03:57:29;99288.16;;;13.15;81.98
49585;BME280;35491;49.142;9.210;2023-04-23T03:58:33;99282.47;;;13.09;82.36
49585;BME280;35491;49.142;9.210;2023-04-23T03:59:36;99285.00;;;13.11;82.58
49585;BME280;35491;49.142;9.210;2023-04-23T04:00:40;99292.13;;;13.19;82.38
49585;BME280;35491;49.142;9.210;2023-04-23T04:01:42;99288.84;;;13.08;82.15
49585;BME280;35491;49.142;9.210;2023-04-23T04:02:48;99284.53;;;13.07;82.36
49585;BME280;35491;49.142;9.210;2023-04-23T04:03:49;99283.59;;;13.15;82.05
49585;BME280;35491;49.142;9.210;2023-04-23T04:04:53;99288.31;;;13.13;81.93
49585;BME280;35491;49.142;9.210;2023-04-23T04:05:54;99287.84;;;13.09;82.45
49585;BME280;35491;49.142;9.210;2023-04-23T04:06:58;99294.06;;;13.10;82.38
49585;BME280;35491;49.142;9.210;2023-04-23T04:08:00;99293.69;;;13.13;82.38
49585;BME280;35491;49.142;9.210;2023-04-23T04:09:04;99289.34;;;13.12;82.30
49585;BME280;35491;49.142;9.210;2023-04-23T04:10:08;99292.84;;;13.13;82.54
49585;BME280;35491;49.142;9.210;2023-04-23T04:11:12;99287.56;;;13.04;82.62
49585;BME280;35491;49.142;9.210;2023-04-23T04:12:13;99290.25;;;13.04;82.74
49585;BME280;35491;49.142;9.210;2023-04-23T04:13:18;99291.25;;;13.03;83.18
49585;BME280;35491;49.142;9.210;2023-04-23T04:14:20;99290.72;;;13.08;82.75
49585;BME280;35491;49.142;9.210;2023-04-23T04:15:28;99287.56;;;13.04;82.87
49585;BME280;35491;49.142;9.210;2023-04-23T04:16:29;99293.94;;;13.03;82.49
49585;BME280;35491;49.142;9.210;2023-04-23T04:17:34;99293.13;;;13.03;82.56
49585;BME280;35491;49.142;9.210;2023-04-23T04:18:35;99295.13;;;13.01;82.49
49585;BME280;35491;49.142;9.210;2023-04-23T04:19:39;99285.59;;;12.98;82.78
49585;BME280;35491;49.142;9.210;2023-04-23T04:20:41;99295.84;;;12.94;83.20
49585;BME280;35491;49.142;9.210;2023-04-23T04:21:45;99289.78;;;13.01;83.16
49585;BME280;35491;49.142;9.210;2023-04-23T04:22:47;99297.16;;;12.99;83.21
49585;BME280;35491;49.142;9.210;2023-04-23T04:23:51;99297.22;;;12.90;83.26
49585;BME280;35491;49.142;9.210;2023-04-23T04:24:53;99293.88;;;12.88;83.59
49585;BME280;35491;49.142;9.210;2023-04-23T04:25:57;99295.53;;;12.89;83.41
49585;BME280;35491;49.142;9.210;2023-04-23T04:26:59;99297.09;;;12.84;83.54
49585;BME280;35491;49.142;9.210;2023-04-23T04:28:04;99295.00;;;12.94;83.00
49585;BME280;35491;49.142;9.210;2023-04-23T04:29:07;99299.97;;;13.05;82.62
49585;BME280;35491;49.142;9.210;2023-04-23T04:30:12;99300.13;;;13.04;82.34
49585;BME280;35491;49.142;9.210;2023-04-23T04:31:17;99295.78;;;13.03;82.25
49585;BME280;35491;49.142;9.210;2023-04-23T04:32:22;99295.19;;;12.92;82.23
49585;BME280;35491;49.142;9.210;2023-04-23T04:33:24;99297.88;;;12.92;82.39
49585;BME280;35491;49.142;9.210;2023-04-23T04:34:29;99300.56;;;12.92;82.36
49585;BME280;35491;49.142;9.210;2023-04-23T04:35:31;99307.06;;;12.98;82.13
49585;BME280;35491;49.142;9.210;2023-04-23T04:36:35;99306.69;;;13.01;81.83
49585;BME280;35491;49.142;9.210;2023-04-23T04:37:36;99308.84;;;13.06;81.84
49585;BME280;35491;49.142;9.210;2023-04-23T04:38:42;99313.53;;;13.04;81.61
49585;BME280;35491;49.142;9.210;2023-04-23T04:39:44;99313.72;;;13.02;82.00
49585;BME280;35491;49.142;9.210;2023-04-23T04:40:48;99319.56;;;13.06;82.07
49585;BME280;35491;49.142;9.210;2023-04-23T04:41:50;99316.41;;;13.02;82.17
49585;BME280;35491;49.142;9.210;2023-04-23T04:42:54;99314.31;;;13.13;81.68
49585;BME280;35491;49.142;9.210;2023-04-23T04:43:55;99315.47;;;13.18;81.38
49585;BME280;35491;49.142;9.210;2023-04-23T04:44:58;99316.34;;;13.10;80.77
49585;BME280;35491;49.142;9.210;2023-04-23T04:46:00;99322.25;;;13.06;81.58
49585;BME280;35491;49.142;9.210;2023-04-23T04:47:07;99320.97;;;13.02;81.79
49585;BME280;35491;49.142;9.210;2023-04-23T04:48:08;99318.50;;;12.92;81.79
49585;BME280;35491;49.142;9.210;2023-04-23T04:49:12;99321.00;;;12.93;82.09
49585;BME280;35491;49.142;9.210;2023-04-23T04:50:13;99317.66;;;12.91;81.91
49585;BME280;35491;49.142;9.210;2023-04-23T04:51:17;99313.53;;;12.80;82.08
49585;BME280;35491;49.142;9.210;2023-04-23T04:52:18;99319.56;;;12.83;82.55
49585;BME280;35491;49.142;9.210;2023-04-23T04:53:22;99319.03;;;12.87;82.31
49585;BME280;35491;49.142;9.210;2023-04-23T04:54:23;99324.91;;;12.83;82.84
49585;BME280;35491;49.142;9.210;2023-04-23T04:55:27;99316.72;;;12.84;82.74
49585;BME280;35491;49.142;9.210;2023-04-23T04:56:28;99324.03;;;12.90;82.48
49585;BME280;35491;49.142;9.210;2023-04-23T04:57:32;99322.50;;;12.96;81.74
49585;BME280;35491;49.142;9.210;2023-04-23T04:58:33;99315.66;;;12.93;82.17
49585;BME280;35491;49.142;9.210;2023-04-23T04:59:37;99319.34;;;12.92;81.68
49585;BME280;35491;49.142;9.210;2023-04-23T05:00:40;99318.97;;;12.95;81.85
49585;BME280;35491;49.142;9.210;2023-04-23T05:01:42;99313.97;;;12.92;81.90
49585;BME280;35491;49.142;9.210;2023-04-23T05:02:49;99324.88;;;12.91;81.88
49585;BME280;35491;49.142;9.210;2023-04-23T05:03:50;99325.19;;;12.96;81.67
49585;BME280;35491;49.142;9.210;2023-04-23T05:04:53;99325.72;;;12.91;81.99
49585;BME280;35491;49.142;9.210;2023-04-23T05:05:55;99326.91;;;12.89;82.00
49585;BME280;35491;49.142;9.210;2023-04-23T05:06:58;99322.19;;;12.91;81.96
49585;BME280;35491;49.142;9.210;2023-04-23T05:08:00;99321.38;;;12.90;82.19
49585;BME280;35491;49.142;9.210;2023-04-23T05:09:04;99321.16;;;12.92;81.77
49585;BME280;35491;49.142;9.210;2023-04-23T05:10:06;99314.44;;;12.96;81.52
49585;BME280;35491;49.142;9.210;2023-04-23T05:11:09;99322.66;;;12.94;81.87
49585;BME280;35491;49.142;9.210;2023-04-23T05:12:11;99322.38;;;12.89;81.72
49585;BME280;35491;49.142;9.210;2023-04-23T05:13:14;99323.03;;;12.91;82.10
49585;BME280;35491;49.142;9.210;2023-04-23T05:14:16;99326.66;;;12.99;81.79
49585;BME280;35491;49.142;9.210;2023-04-23T05:15:20;99326.31;;;13.02;81.46
49585;BME280;35491;49.142;9.210;2023-04-23T05:16:21;99324.81;;;12.99;81.84
49585;BME280;35491;49.142;9.210;2023-04-23T05:17:25;99327.00;;;12.95;81.79
49585;BME280;35491;49.142;9.210;2023-04-23T05:18:28;99325.66;;;13.00;81.54
49585;BME280;35491;49.142;9.210;2023-04-23T05:19:32;99331.97;;;13.07;81.44
49585;BME280;35491;49.142;9.210;2023-04-23T05:20:33;99328.28;;;13.08;81.17
49585;BME280;35491;49.142;9.210;2023-04-23T05:21:38;99330.69;;;13.03;81.28
49585;BME280;35491;49.142;9.210;2023-04-23T05:22:39;99324.25;;;13.12;80.29
49585;BME280;35491;49.142;9.210;2023-04-23T05:23:44;99321.38;;;13.14;80.17
49585;BME280;35491;49.142;9.210;2023-04-23T05:24:45;99328.03;;;13.18;79.99
49585;BME280;35491;49.142;9.210;2023-04-23T05:25:49;99323.88;;;13.15;79.67
49585;BME280;35491;49.142;9.210;2023-04-23T05:26:52;99321.97;;;13.01;79.90
49585;BME280;35491;49.142;9.210;2023-04-23T05:27:56;99323.78;;;13.00;80.01
49585;BME280;35491;49.142;9.210;2023-04-23T05:28:58;99318.56;;;13.07;79.92
49585;BME280;35491;49.142;9.210;2023-04-23T05:30:02;99321.25;;;13.07;80.02
49585;BME280;35491;49.142;9.210;2023-04-23T05:31:03;99315.16;;;13.13;80.07
49585;BME280;35491;49.142;9.210;2023-04-23T05:32:07;99316.47;;;13.17;79.72
49585;BME280;35491;49.142;9.210;2023-04-23T05:33:08;99312.13;;;13.16;79.22